Time;durP1;ratioP1;P1;durP2;ratioP2;P2;SDS_P1;SDS_P2;PMS_P1;PMS_P2;Temp;Humidity;BMP_temperature;BMP_pressure;BME280_temperature;BME280_humidity;BME280_pressure;Samples;Min_cycle;Max_cycle;Signal;HPM_P1;HPM_P2
2023/05/21 00:02:03;;;;;;;41.15;33.28;;;29.10;99.90;;;;;;5013717;28;20053;-72
2023/05/21 00:04:32;;;;;;;51.60;33.55;;;29.00;99.90;;;;;;5013658;28;20056;-73
2023/05/21 00:06:59;;;;;;;53.80;40.53;;;29.10;99.90;;;;;;5013501;28;20109;-72
2023/05/21 00:09:25;;;;;;;62.35;46.33;;;29.00;99.90;;;;;;5013814;28;20449;-73
2023/05/21 00:11:52;;;;;;;134.07;100.78;;;29.20;99.90;;;;;;5013689;28;20478;-72
2023/05/21 00:14:18;;;;;;;119.78;82.70;;;29.30;99.90;;;;;;5013402;28;20036;-72
2023/05/21 00:16:45;;;;;;;56.75;41.08;;;29.30;99.90;;;;;;5013491;28;20335;-72
2023/05/21 00:19:12;;;;;;;43.95;35.97;;;29.30;99.90;;;;;;5013545;28;20525;-72
2023/05/21 00:21:39;;;;;;;47.72;35.85;;;29.40;99.90;;;;;;5013520;28;20029;-73
2023/05/21 00:24:06;;;;;;;46.00;33.63;;;29.30;99.90;;;;;;5013704;28;20025;-72
2023/05/21 00:26:33;;;;;;;43.65;32.65;;;29.50;99.90;;;;;;5013490;28;20031;-72
2023/05/21 00:28:59;;;;;;;44.78;32.00;;;29.50;99.90;;;;;;5013560;28;20032;-72
2023/05/21 00:31:26;;;;;;;47.33;33.25;;;29.60;99.90;;;;;;5012948;28;20152;-72
2023/05/21 00:33:53;;;;;;;43.78;32.80;;;29.70;99.90;;;;;;5013499;28;20026;-72
2023/05/21 00:36:22;;;;;;;45.03;32.15;;;29.60;99.90;;;;;;5013369;28;20029;-73
2023/05/21 00:38:49;;;;;;;45.72;32.70;;;29.50;99.90;;;;;;5013275;28;20426;-72
2023/05/21 00:41:17;;;;;;;46.25;33.72;;;29.60;99.90;;;;;;5013381;28;20479;-72
2023/05/21 00:43:44;;;;;;;44.88;32.88;;;29.80;99.90;;;;;;5013362;28;20387;-72
2023/05/21 00:46:15;;;;;;;45.97;31.00;;;29.80;99.90;;;;;;5027621;28;20028;-72
2023/05/21 00:48:45;;;;;;;41.53;29.63;;;29.80;99.90;;;;;;5022830;28;20104;-73
2023/05/21 00:51:14;;;;;;;40.85;29.77;;;29.90;99.90;;;;;;5024629;28;20026;-73
2023/05/21 00:53:42;;;;;;;45.42;30.50;;;29.90;99.90;;;;;;4995713;28;20372;-74
2023/05/21 00:56:08;;;;;;;38.83;29.45;;;29.90;99.90;;;;;;5013471;28;20022;-72
2023/05/21 00:58:36;;;;;;;41.88;27.23;;;29.90;99.90;;;;;;5030853;28;20021;-75
2023/05/21 01:01:05;;;;;;;37.17;27.75;;;29.90;99.90;;;;;;5032907;28;20022;-70
2023/05/21 01:03:37;;;;;;;45.88;33.00;;;30.10;99.90;;;;;;5032931;28;20105;-72
2023/05/21 01:06:05;;;;;;;85.88;70.78;;;30.20;99.90;;;;;;5032530;28;20048;-70
2023/05/21 01:08:36;;;;;;;58.67;41.28;;;30.20;99.90;;;;;;5031040;28;20045;-69
2023/05/21 01:11:05;;;;;;;97.05;67.20;;;30.30;99.90;;;;;;5021804;28;20053;-76
2023/05/21 01:13:33;;;;;;;67.20;52.65;;;30.30;99.90;;;;;;5013069;28;20494;-70
2023/05/21 01:16:00;;;;;;;49.95;37.42;;;30.10;99.90;;;;;;5013107;28;20101;-69
2023/05/21 01:18:27;;;;;;;56.30;41.83;;;30.20;99.90;;;;;;5012748;28;20117;-71
2023/05/21 01:20:54;;;;;;;40.10;29.17;;;30.20;99.90;;;;;;5012947;28;20018;-70
2023/05/21 01:23:20;;;;;;;31.92;24.95;;;30.30;99.90;;;;;;5013082;28;20022;-70
2023/05/21 01:25:47;;;;;;;44.83;34.92;;;30.20;99.90;;;;;;5028850;28;20018;-70
2023/05/21 01:28:13;;;;;;;44.13;33.10;;;30.30;99.90;;;;;;5021412;28;20022;-69
2023/05/21 01:30:42;;;;;;;57.30;40.90;;;30.30;99.90;;;;;;5013049;28;20033;-71
2023/05/21 01:33:15;;;;;;;90.57;57.72;;;30.40;99.90;;;;;;5012949;28;20061;-71
2023/05/21 01:35:50;;;;;;;40.58;32.22;;;30.40;99.90;;;;;;5012794;28;20394;-70
2023/05/21 01:38:22;;;;;;;46.42;33.20;;;30.40;99.90;;;;;;5012682;28;20034;-71
2023/05/21 01:40:53;;;;;;;;;;;30.50;99.90;;;;;;5013069;28;20029;-71
2023/05/21 01:43:21;;;;;;;44.90;32.28;;;30.60;99.90;;;;;;5014542;28;20366;-72
2023/05/21 01:45:51;;;;;;;37.58;28.35;;;30.80;99.90;;;;;;5016496;28;20026;-71
2023/05/21 01:48:18;;;;;;;42.17;28.70;;;30.70;99.90;;;;;;5016331;28;20029;-70
2023/05/21 01:50:46;;;;;;;60.28;47.97;;;30.60;99.90;;;;;;5016209;28;20064;-69
2023/05/21 01:53:14;;;;;;;94.03;60.63;;;30.80;99.90;;;;;;5016050;28;20033;-69
2023/05/21 01:55:41;;;;;;;66.20;47.85;;;30.80;99.90;;;;;;5016442;28;20029;-69
2023/05/21 01:58:07;;;;;;;43.47;31.55;;;30.90;99.90;;;;;;5015931;28;20033;-69
2023/05/21 02:00:34;;;;;;;41.83;31.00;;;30.70;99.90;;;;;;5016295;28;20022;-70
2023/05/21 02:03:01;;;;;;;53.25;38.55;;;30.70;99.90;;;;;;5015969;28;20021;-70
2023/05/21 02:05:27;;;;;;;45.22;34.00;;;30.70;99.90;;;;;;5015735;28;20041;-69
2023/05/21 02:07:54;;;;;;;34.35;27.10;;;30.90;99.90;;;;;;5016169;28;20061;-69
2023/05/21 02:10:20;;;;;;;37.35;28.08;;;30.80;99.90;;;;;;5015886;28;20058;-71
2023/05/21 02:12:47;;;;;;;77.35;56.95;;;30.80;99.90;;;;;;5016117;28;20026;-69
2023/05/21 02:15:16;;;;;;;93.68;62.50;;;30.80;99.90;;;;;;5015798;28;20033;-69
2023/05/21 02:17:44;;;;;;;38.97;30.02;;;30.90;99.90;;;;;;5015800;28;20109;-69
2023/05/21 02:20:11;;;;;;;60.67;44.17;;;30.90;99.90;;;;;;5016291;28;20034;-68
2023/05/21 02:22:41;;;;;;;54.08;38.20;;;31.10;99.90;;;;;;5015376;28;20022;-72
2023/05/21 02:25:09;;;;;;;35.67;28.77;;;31.10;99.90;;;;;;5015474;28;20022;-76
2023/05/21 02:27:36;;;;;;;38.53;25.83;;;31.10;99.90;;;;;;5015429;28;20037;-68
2023/05/21 02:30:04;;;;;;;48.70;27.90;;;31.10;99.90;;;;;;5018419;28;20383;-70
2023/05/21 02:32:32;;;;;;;65.65;46.03;;;31.20;99.90;;;;;;5022783;28;20602;-69
2023/05/21 02:35:00;;;;;;;53.22;40.03;;;31.40;99.90;;;;;;5015456;28;20498;-72
2023/05/21 02:37:27;;;;;;;75.20;53.63;;;31.40;99.90;;;;;;5015013;28;20149;-71
2023/05/21 02:39:54;;;;;;;68.05;49.53;;;31.40;99.90;;;;;;5019082;28;20029;-71
2023/05/21 02:42:23;;;;;;;70.10;47.05;;;31.30;99.90;;;;;;5022689;28;20479;-71
2023/05/21 02:44:52;;;;;;;81.32;62.28;;;31.40;99.90;;;;;;5014941;28;20072;-71
2023/05/21 02:47:19;;;;;;;64.07;41.78;;;31.40;99.90;;;;;;5015176;28;20426;-69
2023/05/21 02:49:46;;;;;;;73.57;57.13;;;31.50;99.90;;;;;;5014977;28;20423;-71
2023/05/21 02:52:12;;;;;;;52.47;38.55;;;31.40;99.90;;;;;;5014436;28;20060;-67
2023/05/21 02:54:39;;;;;;;45.30;28.15;;;31.40;99.90;;;;;;5014737;28;20046;-69
2023/05/21 02:57:05;;;;;;;32.35;21.80;;;31.40;99.90;;;;;;5014928;28;20029;-69
2023/05/21 02:59:32;;;;;;;27.92;21.77;;;31.30;99.90;;;;;;5024280;28;20025;-70
2023/05/21 03:01:59;;;;;;;31.42;22.25;;;31.40;99.90;;;;;;5027531;28;20087;-69
2023/05/21 03:04:27;;;;;;;35.92;26.23;;;31.30;99.90;;;;;;5014757;28;20050;-73
2023/05/21 03:06:54;;;;;;;38.75;24.67;;;31.40;99.90;;;;;;5014729;28;20022;-71
2023/05/21 03:09:21;;;;;;;36.60;26.38;;;31.30;99.90;;;;;;5014735;28;20041;-70
2023/05/21 03:11:49;;;;;;;33.35;22.65;;;31.30;99.90;;;;;;5017163;28;20070;-71
2023/05/21 03:14:16;;;;;;;27.27;21.40;;;31.30;99.90;;;;;;5023133;28;20030;-70
2023/05/21 03:16:43;;;;;;;26.33;19.52;;;31.40;99.90;;;;;;5014500;28;20501;-70
2023/05/21 03:19:11;;;;;;;44.97;33.03;;;31.30;99.90;;;;;;5014618;28;20032;-69
2023/05/21 03:21:37;;;;;;;92.82;66.57;;;31.40;99.90;;;;;;5014375;28;20486;-71
2023/05/21 03:24:05;;;;;;;43.72;33.38;;;31.40;99.90;;;;;;5014585;28;20109;-70
2023/05/21 03:26:32;;;;;;;28.98;20.48;;;31.50;99.90;;;;;;5014343;28;20525;-70
2023/05/21 03:28:58;;;;;;;26.05;18.55;;;31.50;99.90;;;;;;5014329;28;20394;-70
2023/05/21 03:31:25;;;;;;;27.23;19.55;;;31.60;99.90;;;;;;5032963;28;20119;-70
2023/05/21 03:33:52;;;;;;;134.68;104.95;;;31.60;99.90;;;;;;5029292;28;20018;-72
2023/05/21 03:36:19;;;;;;;74.65;55.92;;;31.50;99.90;;;;;;5021082;28;20061;-70
2023/05/21 03:38:46;;;;;;;75.93;52.97;;;31.50;99.90;;;;;;5033688;28;20474;-69
2023/05/21 03:41:12;;;;;;;39.55;30.98;;;31.60;99.90;;;;;;5020312;28;20108;-69
2023/05/21 03:43:39;;;;;;;31.35;23.05;;;31.80;99.90;;;;;;5014110;28;20025;-69
2023/05/21 03:46:05;;;;;;;30.08;24.88;;;31.80;99.90;;;;;;5013876;28;20026;-69
2023/05/21 03:48:32;;;;;;;25.50;20.08;;;31.90;99.90;;;;;;5022653;28;20018;-72
2023/05/21 03:50:58;;;;;;;25.27;18.00;;;32.00;99.90;;;;;;5013983;28;20474;-69
2023/05/21 03:53:25;;;;;;;23.77;18.30;;;32.00;99.90;;;;;;5013833;28;20037;-69
2023/05/21 03:55:53;;;;;;;28.90;19.70;;;32.10;99.90;;;;;;5014030;28;20101;-69
2023/05/21 03:58:22;;;;;;;26.60;21.88;;;32.20;99.90;;;;;;5013891;28;20029;-69
2023/05/21 04:00:48;;;;;;;88.35;71.13;;;32.20;99.90;;;;;;5013744;28;20032;-69
2023/05/21 04:03:15;;;;;;;30.08;24.90;;;32.30;99.90;;;;;;5032062;28;20024;-70
2023/05/21 04:05:42;;;;;;;38.75;28.90;;;32.40;99.90;;;;;;5030837;28;20064;-70
2023/05/21 04:08:09;;;;;;;22.67;17.73;;;32.40;99.90;;;;;;5024102;28;20030;-70
2023/05/21 04:10:36;;;;;;;21.17;16.65;;;32.50;99.90;;;;;;5013758;28;20022;-71
2023/05/21 04:13:02;;;;;;;23.38;17.88;;;32.50;99.90;;;;;;5019257;28;20382;-70
2023/05/21 04:15:29;;;;;;;29.92;20.00;;;32.60;99.90;;;;;;5027497;28;20030;-70
2023/05/21 04:17:55;;;;;;;26.65;21.20;;;32.70;99.90;;;;;;5033371;28;20478;-69
2023/05/21 04:20:22;;;;;;;34.63;24.75;;;32.70;99.90;;;;;;5033384;28;20475;-70
2023/05/21 04:22:48;;;;;;;30.80;23.92;;;32.70;99.90;;;;;;5033137;28;20478;-70
2023/05/21 04:25:15;;;;;;;29.65;22.08;;;32.60;99.90;;;;;;5033265;28;20017;-71
2023/05/21 04:27:42;;;;;;;35.22;20.15;;;32.60;99.90;;;;;;5033243;28;20021;-71
2023/05/21 04:30:10;;;;;;;28.13;22.58;;;32.60;99.90;;;;;;5015609;28;20414;-72
2023/05/21 04:32:37;;;;;;;27.10;21.88;;;32.60;99.90;;;;;;5033210;28;20022;-72
2023/05/21 04:35:04;;;;;;;29.75;21.83;;;32.50;99.90;;;;;;5033178;28;20021;-71
2023/05/21 04:37:33;;;;;;;29.98;23.77;;;32.50;99.90;;;;;;5032781;28;20029;-69
2023/05/21 04:40:01;;;;;;;32.70;22.05;;;32.50;99.90;;;;;;5032957;28;20112;-69
2023/05/21 04:42:28;;;;;;;51.80;43.75;;;32.40;99.90;;;;;;5033173;28;20108;-70
2023/05/21 04:44:58;;;;;;;29.58;23.83;;;32.40;99.90;;;;;;5032936;28;20021;-71
2023/05/21 04:47:24;;;;;;;39.80;30.75;;;32.40;99.90;;;;;;5032934;28;20049;-69
2023/05/21 04:49:52;;;;;;;39.60;32.10;;;32.50;99.90;;;;;;5033068;28;20101;-70
2023/05/21 04:52:18;;;;;;;47.58;34.85;;;32.60;99.90;;;;;;5032859;28;20029;-68
2023/05/21 04:54:46;;;;;;;61.58;46.08;;;32.60;99.90;;;;;;5033014;28;20021;-68
2023/05/21 04:57:13;;;;;;;65.90;45.78;;;32.60;99.90;;;;;;5033019;28;20033;-69
2023/05/21 04:59:40;;;;;;;44.70;36.05;;;32.60;99.90;;;;;;5032805;28;20499;-70
2023/05/21 05:02:06;;;;;;;36.85;25.83;;;32.60;99.90;;;;;;5032826;28;20483;-69
2023/05/21 05:04:33;;;;;;;28.98;21.08;;;32.60;99.90;;;;;;5032833;28;20041;-68
2023/05/21 05:07:00;;;;;;;22.60;15.43;;;32.50;99.90;;;;;;5032788;28;20028;-69
2023/05/21 05:09:26;;;;;;;17.48;14.13;;;32.50;99.90;;;;;;5033047;28;20087;-67
2023/05/21 05:11:53;;;;;;;18.45;14.43;;;32.50;99.90;;;;;;5032855;28;20080;-69
2023/05/21 05:14:19;;;;;;;20.10;15.80;;;32.60;99.90;;;;;;5032600;28;20021;-68
2023/05/21 05:16:47;;;;;;;17.27;13.63;;;32.70;99.90;;;;;;5033890;28;20052;-70
2023/05/21 05:19:14;;;;;;;18.48;12.70;;;32.70;99.90;;;;;;5036700;28;20104;-70
2023/05/21 05:21:40;;;;;;;16.20;12.65;;;32.90;99.90;;;;;;5036424;28;20026;-70
2023/05/21 05:24:07;;;;;;;16.55;12.20;;;33.00;99.90;;;;;;5036529;28;20021;-70
2023/05/21 05:26:33;;;;;;;17.05;12.65;;;33.00;99.90;;;;;;5036547;28;20029;-69
2023/05/21 05:28:59;;;;;;;14.95;13.23;;;33.00;99.90;;;;;;5036232;28;20045;-71
2023/05/21 05:31:26;;;;;;;20.20;14.95;;;33.10;99.90;;;;;;5036428;28;20032;-71
2023/05/21 05:33:52;;;;;;;16.00;12.40;;;33.20;99.90;;;;;;5036328;28;20493;-69
2023/05/21 05:36:22;;;;;;;17.05;12.57;;;33.20;99.90;;;;;;5036124;28;20025;-70
2023/05/21 05:38:48;;;;;;;20.33;15.27;;;33.20;99.90;;;;;;5036131;28;20034;-69
2023/05/21 05:41:15;;;;;;;31.92;26.77;;;33.30;99.90;;;;;;5030731;28;20099;-71
2023/05/21 05:43:41;;;;;;;27.00;22.67;;;33.40;99.90;;;;;;5018513;28;20014;-70
2023/05/21 05:46:08;;;;;;;20.65;15.80;;;33.40;99.90;;;;;;5016335;28;20112;-71
2023/05/21 05:48:35;;;;;;;20.15;15.88;;;33.30;99.90;;;;;;5016313;28;20076;-70
2023/05/21 05:51:01;;;;;;;20.75;13.50;;;33.30;99.90;;;;;;5016144;28;20434;-72
2023/05/21 05:53:28;;;;;;;17.95;12.20;;;33.30;99.90;;;;;;5018534;28;20109;-72
2023/05/21 05:55:55;;;;;;;17.48;12.75;;;33.40;99.90;;;;;;5024696;28;20029;-73
2023/05/21 05:58:21;;;;;;;20.77;13.50;;;33.40;99.90;;;;;;5015954;28;20026;-72
2023/05/21 06:00:48;;;;;;;15.43;12.88;;;33.40;99.90;;;;;;5027278;28;20382;-73
2023/05/21 06:03:14;;;;;;;19.60;14.73;;;33.50;99.90;;;;;;5034691;28;20487;-71
2023/05/21 06:05:41;;;;;;;19.45;14.27;;;33.50;99.90;;;;;;5034375;28;20393;-70
2023/05/21 06:08:07;;;;;;;16.77;14.15;;;33.50;99.90;;;;;;5034449;28;20482;-71
2023/05/21 06:10:34;;;;;;;21.80;13.85;;;33.50;99.90;;;;;;5034514;28;20025;-75
2023/05/21 06:13:00;;;;;;;18.35;13.57;;;33.60;99.90;;;;;;5034529;28;20030;-73
2023/05/21 06:15:27;;;;;;;14.57;12.07;;;33.70;99.90;;;;;;5034292;28;20021;-73
2023/05/21 06:17:53;;;;;;;17.65;13.05;;;33.70;99.90;;;;;;5034585;28;20022;-74
2023/05/21 06:20:20;;;;;;;15.65;13.15;;;33.80;99.90;;;;;;5034300;28;20497;-72
2023/05/21 06:22:46;;;;;;;18.52;14.70;;;33.80;99.90;;;;;;5035072;28;20021;-71
2023/05/21 06:25:14;;;;;;;17.77;13.48;;;33.80;99.90;;;;;;5035482;28;20028;-72
2023/05/21 06:27:41;;;;;;;16.38;12.90;;;33.80;99.90;;;;;;5035201;28;20029;-71
2023/05/21 06:30:08;;;;;;;17.38;12.35;;;33.90;99.90;;;;;;5034300;28;20049;-69
2023/05/21 06:32:34;;;;;;;15.82;13.45;;;33.80;99.90;;;;;;5035228;28;20045;-73
2023/05/21 06:35:01;;;;;;;16.20;12.57;;;33.90;99.90;;;;;;5035179;28;20433;-73
2023/05/21 06:37:28;;;;;;;17.77;14.43;;;33.80;99.90;;;;;;5034910;28;20024;-73
2023/05/21 06:39:54;;;;;;;16.58;13.95;;;33.90;99.90;;;;;;5035002;28;20021;-72
2023/05/21 06:42:21;;;;;;;213.57;143.23;;;33.90;99.90;;;;;;5035084;28;20052;-73
2023/05/21 06:44:47;;;;;;;29.60;20.20;;;33.90;99.90;;;;;;5034815;28;20550;-74
2023/05/21 06:47:14;;;;;;;20.63;16.10;;;33.90;99.90;;;;;;5034968;28;20022;-73
2023/05/21 06:49:40;;;;;;;19.73;14.95;;;33.90;99.90;;;;;;5034230;28;20367;-73
2023/05/21 06:52:07;;;;;;;26.45;20.30;;;33.90;99.90;;;;;;5030782;28;20021;-71
2023/05/21 06:54:34;;;;;;;32.50;22.95;;;33.90;99.90;;;;;;5032212;28;20423;-73
2023/05/21 06:57:00;;;;;;;33.50;20.92;;;33.80;99.90;;;;;;5027674;28;20037;-72
2023/05/21 06:59:27;;;;;;;26.02;19.70;;;33.90;99.90;;;;;;5033457;28;20067;-72
2023/05/21 07:01:53;;;;;;;24.33;17.60;;;33.90;99.90;;;;;;5033583;28;20043;-70
2023/05/21 07:04:20;;;;;;;25.52;17.48;;;34.00;99.90;;;;;;5033501;28;20410;-74
2023/05/21 07:06:47;;;;;;;20.27;15.65;;;34.10;99.90;;;;;;5029033;28;20033;-70
2023/05/21 07:09:14;;;;;;;18.48;14.25;;;34.20;99.90;;;;;;5014536;28;20385;-70
2023/05/21 07:11:40;;;;;;;19.42;14.80;;;34.20;99.90;;;;;;5032001;28;20466;-72
2023/05/21 07:14:08;;;;;;;24.83;14.90;;;34.30;99.90;;;;;;5033207;28;20067;-70
2023/05/21 07:16:35;;;;;;;21.25;15.55;;;34.40;99.90;;;;;;5030566;28;20033;-71
2023/05/21 07:19:01;;;;;;;18.10;13.95;;;34.50;99.90;;;;;;5035070;28;20080;-72
2023/05/21 07:21:28;;;;;;;16.33;14.07;;;34.50;99.90;;;;;;5038345;28;20030;-70
2023/05/21 07:23:57;;;;;;;21.05;15.00;;;34.50;99.90;;;;;;5035285;28;20021;-73
2023/05/21 07:26:25;;;;;;;18.08;14.35;;;34.60;99.90;;;;;;5033376;28;20101;-70
2023/05/21 07:28:51;;;;;;;22.20;14.43;;;34.60;99.90;;;;;;5033530;28;20022;-74
2023/05/21 07:31:18;;;;;;;19.42;14.93;;;34.50;99.90;;;;;;5032290;28;20064;-70
2023/05/21 07:33:44;;;;;;;20.05;15.13;;;34.60;99.90;;;;;;5028863;28;20029;-71
2023/05/21 07:36:11;;;;;;;21.48;15.25;;;34.60;99.90;;;;;;5033924;28;20090;-70
2023/05/21 07:38:38;;;;;;;20.27;14.10;;;34.70;99.90;;;;;;5031894;28;20029;-69
2023/05/21 07:41:05;;;;;;;22.60;15.73;;;34.70;99.90;;;;;;5030541;28;20291;-71
2023/05/21 07:43:31;;;;;;;18.50;15.00;;;34.70;99.90;;;;;;5029129;28;20036;-72
2023/05/21 07:45:58;;;;;;;20.00;15.90;;;34.70;99.90;;;;;;5025957;28;20152;-70
2023/05/21 07:48:25;;;;;;;20.63;15.68;;;34.70;99.90;;;;;;5033440;28;20048;-70
2023/05/21 07:50:52;;;;;;;20.33;14.48;;;34.80;99.90;;;;;;5038884;28;20033;-70
2023/05/21 07:53:19;;;;;;;16.60;14.00;;;34.80;99.90;;;;;;5030536;28;20026;-70
2023/05/21 07:55:46;;;;;;;18.77;15.48;;;34.80;99.90;;;;;;5032608;28;21072;-71
2023/05/21 07:58:16;;;;;;;19.38;14.75;;;34.80;99.90;;;;;;5029903;28;20048;-70
2023/05/21 08:00:46;;;;;;;25.20;17.05;;;34.80;99.90;;;;;;5026228;28;20478;-70
2023/05/21 08:03:15;;;;;;;21.20;15.52;;;34.80;99.90;;;;;;5027814;28;20026;-69
2023/05/21 08:05:47;;;;;;;27.75;17.90;;;34.70;99.90;;;;;;5031054;28;20112;-68
2023/05/21 08:08:17;;;;;;;20.52;16.05;;;34.70;99.90;;;;;;5031786;28;20347;-70
2023/05/21 08:10:45;;;;;;;17.48;14.60;;;34.60;99.90;;;;;;5032356;28;20033;-70
2023/05/21 08:13:12;;;;;;;20.50;15.48;;;34.50;99.90;;;;;;5043107;28;20060;-69
2023/05/21 08:15:39;;;;;;;21.02;16.02;;;34.50;99.90;;;;;;5053000;28;20033;-71
2023/05/21 08:18:05;;;;;;;20.15;15.65;;;34.50;99.90;;;;;;5028465;28;20525;-70
2023/05/21 08:20:32;;;;;;;19.25;15.98;;;34.50;99.90;;;;;;5019634;28;20383;-69
2023/05/21 08:22:59;;;;;;;25.17;19.00;;;34.50;99.90;;;;;;5031170;28;20020;-72
2023/05/21 08:25:26;;;;;;;28.92;19.05;;;34.50;99.90;;;;;;5053299;28;20494;-70
2023/05/21 08:27:53;;;;;;;25.70;20.88;;;34.50;99.90;;;;;;5048558;28;20026;-68
2023/05/21 08:30:20;;;;;;;25.67;17.70;;;34.50;99.90;;;;;;5033598;28;20036;-69
2023/05/21 08:32:47;;;;;;;26.55;17.08;;;34.50;99.90;;;;;;5033139;28;20045;-71
2023/05/21 08:35:13;;;;;;;27.40;19.90;;;34.40;99.90;;;;;;5017754;28;20022;-71
2023/05/21 08:37:40;;;;;;;24.60;17.55;;;34.40;99.90;;;;;;5013718;28;20026;-69
2023/05/21 08:40:08;;;;;;;24.63;17.75;;;34.40;99.90;;;;;;5013848;28;20018;-70
2023/05/21 08:42:44;;;;;;;33.35;21.48;;;34.40;99.90;;;;;;5031315;28;20032;-73
2023/05/21 08:45:13;;;;;;;32.75;20.02;;;34.30;99.90;;;;;;5032429;28;20021;-71
2023/05/21 08:47:43;;;;;;;27.10;19.52;;;34.30;99.90;;;;;;5015988;28;20491;-71
2023/05/21 08:50:13;;;;;;;63.83;48.10;;;34.30;99.90;;;;;;5030548;28;20403;-70
2023/05/21 08:52:40;;;;;;;32.03;24.90;;;34.30;99.90;;;;;;5036002;28;20022;-71
2023/05/21 08:55:09;;;;;;;32.28;22.35;;;34.30;99.90;;;;;;5037179;28;20064;-70
2023/05/21 08:57:36;;;;;;;27.58;21.92;;;34.30;99.90;;;;;;5036171;28;20456;-71
2023/05/21 09:00:05;;;;;;;32.33;22.63;;;34.30;99.90;;;;;;5037251;28;20017;-71
2023/05/21 09:02:33;;;;;;;31.85;22.88;;;34.30;99.90;;;;;;5036275;28;20079;-70
2023/05/21 09:05:02;;;;;;;28.90;22.67;;;34.20;99.90;;;;;;5036858;28;20048;-68
2023/05/21 09:07:30;;;;;;;67.13;49.30;;;34.20;99.90;;;;;;5036704;28;20039;-70
2023/05/21 09:10:01;;;;;;;36.83;29.90;;;34.20;99.90;;;;;;5032917;28;20029;-69
2023/05/21 09:12:28;;;;;;;64.13;44.88;;;34.20;99.90;;;;;;5033808;28;20026;-68
2023/05/21 09:14:57;;;;;;;41.72;32.75;;;34.20;99.90;;;;;;5017168;28;20037;-69
2023/05/21 09:17:24;;;;;;;36.47;27.15;;;34.10;99.90;;;;;;5027338;28;20128;-70
2023/05/21 09:19:55;;;;;;;58.72;47.53;;;34.10;99.90;;;;;;5037019;28;20018;-68
2023/05/21 09:22:22;;;;;;;;;;;34.10;99.90;;;;;;5037117;28;20021;-71
2023/05/21 09:24:51;;;;;;;59.85;43.90;;;34.10;99.90;;;;;;5036651;28;19905;-70
2023/05/21 09:27:18;;;;;;;51.33;42.58;;;34.10;99.90;;;;;;5035010;28;20029;-70
2023/05/21 09:29:45;;;;;;;39.75;29.73;;;34.00;99.90;;;;;;5032634;28;20032;-70
2023/05/21 09:32:11;;;;;;;31.90;25.27;;;34.00;99.90;;;;;;5026756;28;20085;-69
2023/05/21 09:34:38;;;;;;;37.33;31.65;;;34.00;99.90;;;;;;5022794;28;20026;-66
2023/05/21 09:37:06;;;;;;;37.95;31.77;;;33.90;99.90;;;;;;5036257;28;20092;-68
2023/05/21 09:39:33;;;;;;;53.53;41.90;;;33.90;99.90;;;;;;5036147;28;20359;-69
2023/05/21 09:42:00;;;;;;;39.05;23.40;;;33.90;99.90;;;;;;5043234;28;20534;-70
2023/05/21 09:44:26;;;;;;;36.42;26.75;;;33.90;99.90;;;;;;5036343;28;20136;-71
2023/05/21 09:47:01;;;;;;;56.30;43.22;;;33.90;99.90;;;;;;5036156;28;20021;-73
2023/05/21 09:49:29;;;;;;;86.65;68.72;;;33.90;99.90;;;;;;5036227;28;20022;-69
2023/05/21 09:51:56;;;;;;;78.70;55.20;;;33.80;99.90;;;;;;5036130;28;20025;-70
2023/05/21 09:54:24;;;;;;;55.97;41.53;;;33.80;99.90;;;;;;5035979;28;20029;-69
2023/05/21 09:56:52;;;;;;;73.57;51.72;;;33.70;99.90;;;;;;5036050;28;20116;-70
2023/05/21 09:59:21;;;;;;;74.47;44.35;;;33.60;99.90;;;;;;5037376;28;20025;-71
2023/05/21 10:01:54;;;;;;;38.78;26.35;;;33.60;99.90;;;;;;5034821;28;20359;-72
2023/05/21 10:04:22;;;;;;;33.88;24.27;;;33.20;99.90;;;;;;5046638;28;20489;-70
2023/05/21 10:06:49;;;;;;;35.50;22.67;;;32.80;99.90;;;;;;5055819;28;20108;-68
2023/05/21 10:09:19;;;;;;;31.17;18.95;;;32.50;99.90;;;;;;5055871;28;20104;-71
2023/05/21 10:11:48;;;;;;;28.23;17.83;;;32.30;99.90;;;;;;5055649;28;20347;-71
2023/05/21 10:14:21;;;;;;;18.33;12.65;;;32.10;99.90;;;;;;5055542;28;20089;-70
2023/05/21 10:16:51;;;;;;;21.42;13.65;;;31.90;99.90;;;;;;5055410;28;20064;-71
2023/05/21 10:19:19;;;;;;;22.35;14.73;;;31.70;99.90;;;;;;5055633;28;20511;-71
2023/05/21 10:21:46;;;;;;;20.85;14.48;;;31.60;99.90;;;;;;5055407;28;20021;-71
2023/05/21 10:24:14;;;;;;;20.48;14.05;;;31.40;99.90;;;;;;5055533;28;20028;-70
2023/05/21 10:26:41;;;;;;;19.20;12.40;;;31.30;99.90;;;;;;5042297;28;20385;-67
2023/05/21 10:29:09;;;;;;;18.45;12.55;;;31.10;99.90;;;;;;5055349;28;20013;-70
2023/05/21 10:31:37;;;;;;;14.45;11.32;;;30.90;99.90;;;;;;5046107;28;20051;-72
2023/05/21 10:34:05;;;;;;;17.33;10.45;;;30.80;99.90;;;;;;5035205;28;20075;-71
2023/05/21 10:36:33;;;;;;;12.77;9.18;;;30.70;99.90;;;;;;5034316;28;20026;-72
2023/05/21 10:39:02;;;;;;;18.33;11.73;;;30.70;99.90;;;;;;5032627;28;20031;-70
2023/05/21 10:41:34;;;;;;;16.05;12.10;;;30.60;99.90;;;;;;5027872;28;20513;-69
2023/05/21 10:44:04;;;;;;;24.77;16.50;;;30.70;99.90;;;;;;5030793;28;20474;-68
2023/05/21 10:46:33;;;;;;;27.40;14.90;;;30.70;99.90;;;;;;5034828;28;20229;-69
2023/05/21 10:49:05;;;;;;;43.67;26.60;;;30.60;99.90;;;;;;5032686;28;20021;-70
2023/05/21 10:51:43;;;;;;;20.02;14.18;;;30.40;99.90;;;;;;5027625;28;20032;-70
2023/05/21 10:54:32;;;;;;;20.67;14.48;;;30.50;99.90;;;;;;5033242;28;20033;-70
2023/05/21 10:57:10;;;;;;;24.55;17.45;;;30.30;99.90;;;;;;5029297;28;20053;-68
2023/05/21 10:59:39;;;;;;;21.45;14.48;;;30.20;99.90;;;;;;5025392;28;20036;-68
2023/05/21 11:02:07;;;;;;;25.88;14.57;;;30.00;99.90;;;;;;5029926;28;20025;-69
2023/05/21 11:04:38;;;;;;;28.63;21.13;;;29.90;99.90;;;;;;5034616;28;20114;-68
2023/05/21 11:07:05;;;;;;;20.23;14.63;;;29.70;99.90;;;;;;5031835;28;20129;-68
2023/05/21 11:09:32;;;;;;;45.08;25.83;;;29.70;99.90;;;;;;5034320;28;20028;-69
2023/05/21 11:12:00;;;;;;;30.35;17.88;;;29.60;99.90;;;;;;5031194;28;20064;-69
2023/05/21 11:14:31;;;;;;;22.27;16.92;;;29.80;99.90;;;;;;5031724;28;20041;-71
2023/05/21 11:17:02;;;;;;;30.73;19.35;;;29.70;99.90;;;;;;5031927;28;20053;-69
2023/05/21 11:19:33;;;;;;;22.73;15.45;;;29.70;99.90;;;;;;5027237;28;20028;-70
2023/05/21 11:22:00;;;;;;;19.08;14.90;;;29.90;99.90;;;;;;5031335;28;20477;-71
2023/05/21 11:24:27;;;;;;;35.15;23.83;;;29.90;99.90;;;;;;5015153;28;20511;-70
2023/05/21 11:26:57;;;;;;;52.80;29.92;;;29.80;99.90;;;;;;5016165;28;20037;-71
2023/05/21 11:29:29;;;;;;;31.08;16.83;;;29.80;99.90;;;;;;5014924;28;20057;-71
2023/05/21 11:32:01;;;;;;;23.67;14.00;;;29.80;99.90;;;;;;5017771;28;20107;-70
2023/05/21 12:55:55;;;;;;;92.55;75.50;;;27.20;99.90;;;;;;5111259;27;20741;-72
2023/05/21 12:58:22;;;;;;;81.07;59.42;;;27.60;99.90;;;;;;5111021;28;20031;-75
2023/05/21 13:00:48;;;;;;;26.60;18.33;;;27.80;99.90;;;;;;5111232;28;20389;-75
2023/05/21 13:03:15;;;;;;;20.00;15.73;;;27.90;99.90;;;;;;5110914;28;20019;-75
2023/05/21 13:05:41;;;;;;;21.60;15.65;;;28.00;99.90;;;;;;5107654;28;20405;-73
2023/05/21 13:08:09;;;;;;;20.40;14.95;;;27.90;99.90;;;;;;5108580;28;20118;-74
2023/05/21 13:10:35;;;;;;;17.10;13.70;;;28.20;99.90;;;;;;5095758;28;20035;-73
2023/05/21 13:13:02;;;;;;;18.40;14.43;;;28.30;99.90;;;;;;5110141;28;20041;-72
2023/05/21 13:15:29;;;;;;;22.70;17.27;;;28.40;99.90;;;;;;5111939;22;20052;-72
2023/05/21 13:17:57;;;;;;;26.98;20.63;;;28.40;99.90;;;;;;5090195;28;20024;-68
2023/05/21 13:20:26;;;;;;;24.77;19.25;;;28.50;99.90;;;;;;5089923;28;20103;-69
2023/05/21 13:22:52;;;;;;;23.45;16.52;;;28.60;99.90;;;;;;5087523;28;20029;-68
2023/05/21 13:25:22;;;;;;;62.35;49.22;;;28.50;99.90;;;;;;5089606;28;20016;-69
2023/05/21 13:27:49;;;;;;;190.15;128.18;;;28.50;99.90;;;;;;5087257;28;20012;-69
2023/05/21 13:30:16;;;;;;;44.70;30.33;;;28.60;99.90;;;;;;5086858;28;20188;-69
2023/05/21 13:32:43;;;;;;;29.40;20.15;;;28.60;99.90;;;;;;5090399;28;20031;-69
2023/05/21 13:35:10;;;;;;;138.40;95.28;;;28.60;99.90;;;;;;5089025;28;20525;-69
2023/05/21 13:37:39;;;;;;;54.05;36.38;;;28.60;99.90;;;;;;5084748;28;20028;-70
2023/05/21 13:40:07;;;;;;;30.73;20.33;;;28.70;99.90;;;;;;5083724;28;20465;-69
2023/05/21 13:42:36;;;;;;;26.45;18.02;;;28.50;99.90;;;;;;5091090;28;20028;-69
2023/05/21 13:45:03;;;;;;;23.13;17.73;;;28.60;99.90;;;;;;5091023;28;20028;-69
2023/05/21 13:47:31;;;;;;;25.58;18.52;;;28.70;99.90;;;;;;5090948;28;20043;-69
2023/05/21 13:49:57;;;;;;;24.17;17.38;;;28.70;99.90;;;;;;5091902;28;20036;-70
2023/05/21 13:52:24;;;;;;;25.65;18.25;;;28.50;99.90;;;;;;5100868;28;20024;-68